createdAt,value
2023-03-11T00:00:48.821Z,96344.20
2023-03-11T00:03:27.695Z,96351.00
2023-03-11T00:05:56.497Z,96344.20
2023-03-11T00:08:26.233Z,96349.20
2023-03-11T00:11:00.516Z,96346.40
2023-03-11T00:13:30.121Z,96340.40
2023-03-11T00:15:59.992Z,96338.20
2023-03-11T00:18:31.581Z,96334.40
2023-03-11T00:21:01.038Z,96334.00
2023-03-11T00:23:29.254Z,96332.20
2023-03-11T00:25:57.151Z,96329.00
2023-03-11T00:28:26.791Z,96330.20
2023-03-11T00:30:55.198Z,96327.00
2023-03-11T00:33:23.400Z,96330.40
2023-03-11T00:35:51.670Z,96333.40
2023-03-11T00:38:20.165Z,96330.60
2023-03-11T00:40:49.365Z,96331.80
2023-03-11T00:43:17.487Z,96326.60
2023-03-11T00:45:45.545Z,96328.80
2023-03-11T00:48:14.236Z,96327.80
2023-03-11T00:50:42.971Z,96317.40
2023-03-11T00:53:11.369Z,96314.80
2023-03-11T00:55:39.485Z,96310.80
2023-03-11T00:58:08.833Z,96311.40
2023-03-11T01:00:36.593Z,96306.00
2023-03-11T01:03:04.891Z,96306.40
2023-03-11T01:05:34.780Z,96310.40
2023-03-11T01:08:04.541Z,96307.40
2023-03-11T01:10:33.781Z,96306.80
2023-03-11T01:13:02.533Z,96305.60
2023-03-11T01:15:37.342Z,96305.40
2023-03-11T01:18:06.298Z,96304.20
2023-03-11T01:20:36.870Z,96298.20
2023-03-11T01:23:06.134Z,96298.00
2023-03-11T01:25:34.845Z,96304.60
2023-03-11T01:28:02.745Z,96310.40
2023-03-11T01:30:30.995Z,96303.00
2023-03-11T01:32:58.728Z,96304.40
2023-03-11T01:35:29.373Z,96311.00
2023-03-11T01:37:58.780Z,96312.60
2023-03-11T01:40:41.875Z,96308.00
2023-03-11T01:43:38.771Z,96317.60
2023-03-11T01:46:18.339Z,96323.00
2023-03-11T01:48:50.880Z,96319.20
2023-03-11T01:51:30.657Z,96318.60
2023-03-11T01:54:04.353Z,96321.40
2023-03-11T01:56:33.645Z,96317.60
2023-03-11T01:59:01.487Z,96319.00
2023-03-11T02:01:29.701Z,96325.00
2023-03-11T02:03:58.121Z,96318.00
2023-03-11T02:06:25.934Z,96315.00
2023-03-11T02:08:55.048Z,96327.20
2023-03-11T02:11:29.390Z,96320.00
2023-03-11T02:14:02.702Z,96321.40
2023-03-11T02:16:30.833Z,96327.60
2023-03-11T02:19:08.332Z,96324.40
2023-03-11T02:21:36.440Z,96332.00
2023-03-11T02:24:36.128Z,96331.40
2023-03-11T02:27:16.522Z,96333.80
2023-03-11T02:29:49.667Z,96327.40
2023-03-11T02:32:19.243Z,96330.80
2023-03-11T02:34:47.072Z,96328.40
2023-03-11T02:37:17.557Z,96334.40
2023-03-11T02:39:48.792Z,96334.40
2023-03-11T02:42:28.135Z,96342.20
2023-03-11T02:45:08.029Z,96333.40
2023-03-11T02:47:38.750Z,96335.60
2023-03-11T02:50:11.081Z,96328.60
2023-03-11T02:52:39.241Z,96332.20
2023-03-11T02:55:10.076Z,96333.20
2023-03-11T02:57:38.917Z,96337.20
2023-03-11T03:00:13.515Z,96332.20
2023-03-11T03:02:42.573Z,96336.60
2023-03-11T03:05:11.582Z,96335.80
2023-03-11T03:07:39.376Z,96336.40
2023-03-11T03:10:07.971Z,96343.40
2023-03-11T03:12:35.642Z,96345.80
2023-03-11T03:15:04.225Z,96340.00
2023-03-11T03:17:32.032Z,96342.40
2023-03-11T03:19:59.797Z,96343.00
2023-03-11T03:22:29.344Z,96350.80
2023-03-11T03:24:56.991Z,96348.00
2023-03-11T03:27:24.681Z,96350.80
2023-03-11T03:29:52.335Z,96343.60
2023-03-11T03:32:20.002Z,96346.60
2023-03-11T03:34:47.740Z,96346.20
2023-03-11T03:37:15.408Z,96349.20
2023-03-11T03:39:43.044Z,96349.20
2023-03-11T03:42:10.715Z,96343.00
2023-03-11T03:44:38.579Z,96350.20
2023-03-11T03:47:07.497Z,96350.20
2023-03-11T03:49:35.171Z,96344.20
2023-03-11T03:52:05.572Z,96346.60
2023-03-11T03:54:33.311Z,96347.80
2023-03-11T03:57:01.172Z,96351.20
2023-03-11T03:59:28.885Z,96351.40
2023-03-11T04:01:56.636Z,96347.80
2023-03-11T04:04:24.325Z,96355.00
2023-03-11T04:06:51.999Z,96352.60
2023-03-11T04:09:20.743Z,96353.80
2023-03-11T04:11:48.614Z,96359.60
2023-03-11T04:14:16.366Z,96360.00
2023-03-11T04:16:44.117Z,96353.60
2023-03-11T04:19:12.218Z,96353.20
2023-03-11T04:21:39.963Z,96357.80
2023-03-11T04:24:07.989Z,96359.00
2023-03-11T04:26:36.068Z,96350.80
2023-03-11T04:29:03.991Z,96364.80
2023-03-11T04:31:31.791Z,96361.80
2023-03-11T04:33:59.531Z,96362.00
2023-03-11T04:36:27.285Z,96364.40
2023-03-11T04:38:57.215Z,96367.20
2023-03-11T04:41:25.221Z,96366.40
2023-03-11T04:43:52.911Z,96371.80
2023-03-11T04:46:20.766Z,96369.40
2023-03-11T04:48:48.527Z,96370.00
2023-03-11T04:51:16.335Z,96371.00
2023-03-11T04:53:43.981Z,96371.80
2023-03-11T04:56:11.836Z,96378.40
2023-03-11T04:58:39.531Z,96383.20
2023-03-11T05:01:07.223Z,96386.80
2023-03-11T05:03:34.970Z,96390.80
2023-03-11T05:06:02.789Z,96388.60
2023-03-11T05:08:30.599Z,96399.80
2023-03-11T05:10:58.315Z,96398.00
2023-03-11T05:13:26.034Z,96410.20
2023-03-11T05:15:54.026Z,96420.80
2023-03-11T05:18:22.048Z,96409.60
2023-03-11T05:20:49.781Z,96416.80
2023-03-11T05:23:17.572Z,96427.00
2023-03-11T05:25:45.704Z,96434.20
2023-03-11T05:28:13.494Z,96445.00
2023-03-11T05:30:41.327Z,96440.40
2023-03-11T05:33:09.067Z,96443.80
2023-03-11T05:35:36.913Z,96455.00
2023-03-11T05:38:04.687Z,96450.40
2023-03-11T05:40:32.448Z,96452.40
2023-03-11T05:43:00.130Z,96454.80
2023-03-11T05:45:28.202Z,96458.80
2023-03-11T05:47:56.183Z,96464.60
2023-03-11T05:50:23.802Z,96469.20
2023-03-11T05:52:51.835Z,96467.00
2023-03-11T05:55:19.598Z,96470.60
2023-03-11T05:57:47.334Z,96467.60
2023-03-11T06:00:16.136Z,96477.60
2023-03-11T06:02:43.929Z,96486.60
2023-03-11T06:05:13.714Z,96489.20
2023-03-11T06:07:41.866Z,96492.80
2023-03-11T06:10:10.589Z,96492.40
2023-03-11T06:12:38.731Z,96496.80
2023-03-11T06:15:07.866Z,96498.80
2023-03-11T06:17:35.643Z,96501.80
2023-03-11T06:20:05.359Z,96502.80
2023-03-11T06:22:33.138Z,96512.00
2023-03-11T06:25:00.878Z,96513.60
2023-03-11T06:27:28.775Z,96516.20
2023-03-11T06:29:56.410Z,96520.80
2023-03-11T06:32:24.213Z,96514.80
2023-03-11T06:34:53.246Z,96513.60
2023-03-11T06:37:21.678Z,96509.80
2023-03-11T06:39:53.657Z,96507.20
2023-03-11T06:42:23.979Z,96513.00
2023-03-11T06:44:51.797Z,96521.80
2023-03-11T06:47:19.602Z,96522.80
2023-03-11T06:49:47.244Z,96521.80
2023-03-11T06:52:14.925Z,96531.20
2023-03-11T06:54:43.395Z,96537.20
2023-03-11T06:57:11.509Z,96537.00
2023-03-11T06:59:39.558Z,96540.00
2023-03-11T07:02:10.414Z,96551.20
2023-03-11T07:04:38.218Z,96560.80
2023-03-11T07:07:06.285Z,96563.20
2023-03-11T07:09:34.066Z,96571.60
2023-03-11T07:12:01.806Z,96574.00
2023-03-11T07:14:29.523Z,96580.40
2023-03-11T07:16:57.372Z,96586.60
2023-03-11T07:19:25.202Z,96590.20
2023-03-11T07:21:53.096Z,96594.20
2023-03-11T07:24:21.830Z,96597.60
2023-03-11T07:26:49.527Z,96597.00
2023-03-11T07:29:17.348Z,96599.00
2023-03-11T07:31:45.343Z,96604.20
2023-03-11T07:34:14.059Z,96599.80
2023-03-11T07:36:43.037Z,96608.20
2023-03-11T07:39:16.246Z,96613.00
2023-03-11T07:41:44.997Z,96606.60
2023-03-11T07:44:15.819Z,96604.60
2023-03-11T07:46:45.352Z,96604.60
2023-03-11T07:49:13.974Z,96601.80
2023-03-11T07:51:43.686Z,96611.60
2023-03-11T07:54:13.312Z,96625.20
2023-03-11T07:56:41.477Z,96622.40
2023-03-11T07:59:09.504Z,96625.60
2023-03-11T08:01:40.639Z,96624.60
2023-03-11T08:04:14.534Z,96631.40
2023-03-11T08:06:46.367Z,96637.40
2023-03-11T08:09:14.229Z,96635.20
2023-03-11T08:11:42.797Z,96638.40
2023-03-11T08:14:10.864Z,96647.60
2023-03-11T08:16:40.232Z,96644.60
2023-03-11T08:19:13.964Z,96644.40
2023-03-11T08:21:41.884Z,96653.80
2023-03-11T08:24:13.760Z,96648.00
2023-03-11T08:26:42.395Z,96662.20
2023-03-11T08:29:10.483Z,96650.00
2023-03-11T08:31:38.642Z,96659.80
2023-03-11T08:34:10.552Z,96662.40
2023-03-11T08:36:38.341Z,96662.20
2023-03-11T08:39:06.383Z,96663.00
2023-03-11T08:41:34.544Z,96665.00
2023-03-11T08:44:02.256Z,96670.80
2023-03-11T08:46:39.516Z,96678.80
2023-03-11T08:49:07.699Z,96675.00
2023-03-11T08:51:47.473Z,96679.40
2023-03-11T08:54:15.299Z,96687.20
2023-03-11T08:56:43.319Z,96689.80
2023-03-11T08:59:11.088Z,96696.80
2023-03-11T09:01:48.749Z,96694.80
2023-03-11T09:04:16.745Z,96701.80
2023-03-11T09:06:44.739Z,96707.00
2023-03-11T09:09:12.777Z,96708.60
2023-03-11T09:11:41.867Z,96712.60
2023-03-11T09:14:09.779Z,96720.20
2023-03-11T09:16:38.035Z,96728.20
2023-03-11T09:19:07.584Z,96735.80
2023-03-11T09:21:39.117Z,96749.00
2023-03-11T09:24:09.475Z,96755.40
2023-03-11T09:26:37.604Z,96762.00
2023-03-11T09:29:08.612Z,96769.60
2023-03-11T09:31:38.694Z,96771.60
2023-03-11T09:34:06.954Z,96776.00
2023-03-11T09:36:35.227Z,96781.80
2023-03-11T09:39:03.275Z,96786.60
2023-03-11T09:41:59.230Z,96786.00
2023-03-11T09:45:11.605Z,96801.60
2023-03-11T09:48:04.343Z,96795.20
2023-03-11T09:50:53.717Z,96812.40
2023-03-11T09:53:44.962Z,96820.20
2023-03-11T09:56:22.242Z,96819.60
2023-03-11T09:59:02.314Z,96837.20
2023-03-11T10:01:44.996Z,96836.80
2023-03-11T10:04:21.882Z,96847.40
2023-03-11T10:06:51.872Z,96852.40
2023-03-11T10:09:34.119Z,96855.40
2023-03-11T10:12:38.448Z,96862.80
2023-03-11T10:15:39.701Z,96870.60
2023-03-11T10:18:49.419Z,96880.20
2023-03-11T10:21:59.435Z,96893.60
2023-03-11T10:24:42.594Z,96902.40
2023-03-11T10:27:20.457Z,96905.80
2023-03-11T10:30:25.531Z,96917.60
2023-03-11T10:33:28.993Z,96930.40
2023-03-11T10:36:04.749Z,96935.40
2023-03-11T10:38:50.227Z,96949.20
2023-03-11T10:41:26.897Z,96953.80
2023-03-11T10:44:06.026Z,96979.40
2023-03-11T10:46:34.121Z,96982.00
2023-03-11T10:49:02.067Z,96990.60
2023-03-11T10:51:35.861Z,97000.20
2023-03-11T10:54:05.447Z,97010.60
2023-03-11T10:56:40.390Z,97015.80
2023-03-11T10:59:50.700Z,97028.00
2023-03-11T11:02:26.063Z,97037.00
2023-03-11T11:05:23.131Z,97038.20
2023-03-11T11:08:04.531Z,97046.80
2023-03-11T11:10:35.435Z,97055.80
2023-03-11T11:13:12.374Z,97062.40
2023-03-11T11:15:54.839Z,97075.80
2023-03-11T11:18:35.581Z,97076.00
2023-03-11T11:21:16.444Z,97081.80
2023-03-11T11:23:53.026Z,97091.20
2023-03-11T11:26:26.547Z,97100.40
2023-03-11T11:29:09.764Z,97096.20
2023-03-11T11:31:41.337Z,97109.80
2023-03-11T11:34:34.754Z,97121.40
2023-03-11T11:37:05.634Z,97122.40
2023-03-11T11:39:51.657Z,97138.20
2023-03-11T11:42:20.840Z,97135.20
2023-03-11T11:44:55.274Z,97145.80
2023-03-11T11:47:54.096Z,97154.00
2023-03-11T11:50:43.440Z,97156.40
2023-03-11T11:53:33.080Z,97167.20
2023-03-11T11:56:01.713Z,97174.20
2023-03-11T11:58:31.520Z,97174.40
2023-03-11T12:01:13.444Z,97185.80
2023-03-11T12:04:14.491Z,97183.40
2023-03-11T12:07:07.967Z,97203.40
2023-03-11T12:10:13.019Z,97214.60
2023-03-11T12:13:41.320Z,97213.80
2023-03-11T12:16:34.513Z,97219.00
2023-03-11T12:19:21.300Z,97221.60
2023-03-11T12:22:00.691Z,97241.00
2023-03-11T12:24:40.532Z,97239.20
2023-03-11T12:27:59.799Z,97253.40
2023-03-11T12:30:36.772Z,97260.20
2023-03-11T12:33:20.020Z,97271.00
2023-03-11T12:35:55.995Z,97272.60
2023-03-11T12:38:40.131Z,97276.20
2023-03-11T12:41:27.839Z,97281.80
2023-03-11T12:44:02.570Z,97285.20
2023-03-11T12:46:58.177Z,97300.80
2023-03-11T12:49:33.668Z,97306.40
2023-03-11T12:52:13.647Z,97314.60
2023-03-11T12:55:01.321Z,97316.00
2023-03-11T12:57:40.660Z,97325.00
2023-03-11T13:00:18.289Z,97327.60
2023-03-11T13:03:21.109Z,97341.40
2023-03-11T13:06:26.834Z,97340.80
2023-03-11T13:08:58.018Z,97351.00
2023-03-11T13:11:31.551Z,97364.40
2023-03-11T13:14:29.484Z,97376.80
2023-03-11T13:17:25.043Z,97374.80
2023-03-11T13:19:57.401Z,97380.00
2023-03-11T13:22:58.439Z,97376.20
2023-03-11T13:25:44.339Z,97389.80
2023-03-11T13:28:27.741Z,97401.40
2023-03-11T13:31:33.647Z,97411.00
2023-03-11T13:34:23.648Z,97418.40
2023-03-11T13:37:21.244Z,97422.40
2023-03-11T13:39:57.834Z,97424.40
2023-03-11T13:42:40.261Z,97430.20
2023-03-11T13:45:25.480Z,97435.60
2023-03-11T13:48:00.706Z,97442.40
2023-03-11T13:50:39.462Z,97452.80
2023-03-11T13:53:17.595Z,97462.40
2023-03-11T13:55:47.745Z,97474.00
2023-03-11T13:58:24.637Z,97475.80
2023-03-11T14:00:56.759Z,97484.00
2023-03-11T14:03:27.206Z,97484.00
2023-03-11T14:06:08.597Z,97487.60
2023-03-11T14:08:38.957Z,97495.20
2023-03-11T14:11:12.513Z,97499.80
2023-03-11T14:13:49.899Z,97502.60
2023-03-11T14:16:24.721Z,97512.60
2023-03-11T14:19:15.257Z,97516.00
2023-03-11T14:21:45.404Z,97522.80
2023-03-11T14:24:23.772Z,97528.80
2023-03-11T14:26:57.241Z,97524.60
2023-03-11T14:29:35.240Z,97531.20
2023-03-11T14:32:28.618Z,97539.00
2023-03-11T14:34:57.625Z,97539.80
2023-03-11T14:37:37.040Z,97546.60
2023-03-11T14:40:30.059Z,97552.00
2023-03-11T14:43:05.658Z,97560.00
2023-03-11T14:45:37.384Z,97565.20
2023-03-11T14:48:14.138Z,97569.80
2023-03-11T14:50:49.381Z,97571.80
2023-03-11T14:53:31.110Z,97573.80
2023-03-11T14:56:05.519Z,97580.40
2023-03-11T14:58:40.434Z,97588.80
2023-03-11T15:01:32.518Z,97593.20
2023-03-11T15:04:32.653Z,97601.80
2023-03-11T15:07:03.989Z,97613.60
2023-03-11T15:09:32.616Z,97618.00
2023-03-11T15:12:04.308Z,97619.60
2023-03-11T15:14:35.612Z,97633.80
2023-03-11T15:17:41.211Z,97637.60
2023-03-11T15:20:35.237Z,97645.00
2023-03-11T15:23:07.655Z,97643.00
2023-03-11T15:25:38.928Z,97650.60
2023-03-11T15:28:32.161Z,97655.20
2023-03-11T15:31:21.158Z,97663.40
2023-03-11T15:33:51.567Z,97665.40
2023-03-11T15:36:39.518Z,97664.80
2023-03-11T15:39:30.314Z,97667.80
2023-03-11T15:42:18.723Z,97673.40
2023-03-11T15:45:04.036Z,97674.80
2023-03-11T15:47:32.147Z,97676.00
2023-03-11T15:50:43.112Z,97682.00
2023-03-11T15:53:17.905Z,97686.40
2023-03-11T15:55:47.789Z,97700.00
2023-03-11T15:58:19.048Z,97701.80
2023-03-11T16:00:51.500Z,97710.60
2023-03-11T16:03:20.355Z,97712.40
2023-03-11T16:05:48.703Z,97718.00
2023-03-11T16:08:16.658Z,97725.40
2023-03-11T16:10:44.429Z,97727.60
2023-03-11T16:13:14.029Z,97739.20
2023-03-11T16:15:43.327Z,97745.20
2023-03-11T16:18:11.113Z,97750.20
2023-03-11T16:20:47.547Z,97750.00
2023-03-11T16:23:26.762Z,97758.80
2023-03-11T16:26:00.854Z,97771.40
2023-03-11T16:28:29.222Z,97766.00
2023-03-11T16:30:57.644Z,97777.00
2023-03-11T16:33:25.467Z,97788.60
2023-03-11T16:35:53.324Z,97792.60
2023-03-11T16:38:23.169Z,97796.60
2023-03-11T16:41:02.637Z,97803.60
2023-03-11T16:43:31.838Z,97814.20
2023-03-11T16:45:59.860Z,97814.60
2023-03-11T16:48:27.790Z,97827.80
2023-03-11T16:50:55.704Z,97833.60
2023-03-11T16:53:25.179Z,97836.40
2023-03-11T16:55:53.449Z,97840.00
2023-03-11T16:58:21.570Z,97848.00
2023-03-11T17:00:49.414Z,97851.60
2023-03-11T17:03:21.622Z,97858.60
2023-03-11T17:05:50.381Z,97863.60
2023-03-11T17:08:18.458Z,97868.40
2023-03-11T17:10:46.892Z,97876.80
2023-03-11T17:13:17.736Z,97885.60
2023-03-11T17:16:00.700Z,97891.80
2023-03-11T17:18:29.059Z,97900.00
2023-03-11T17:20:57.151Z,97903.80
2023-03-11T17:23:25.122Z,97913.00
2023-03-11T17:25:52.937Z,97919.20
2023-03-11T17:28:20.656Z,97928.20
2023-03-11T17:30:48.453Z,97926.20
2023-03-11T17:33:16.356Z,97926.00
2023-03-11T17:35:44.035Z,97938.00
2023-03-11T17:38:11.710Z,97939.20
2023-03-11T17:40:39.488Z,97949.00
2023-03-11T17:43:07.697Z,97954.80
2023-03-11T17:45:39.149Z,97958.60
2023-03-11T17:48:06.996Z,97963.40
2023-03-11T17:50:40.969Z,97962.00
2023-03-11T17:53:09.153Z,97968.20
2023-03-11T17:55:40.575Z,97972.40
2023-03-11T17:58:08.726Z,97975.40
2023-03-11T18:00:37.503Z,97976.80
2023-03-11T18:03:05.575Z,97980.40
2023-03-11T18:05:33.316Z,97983.40
2023-03-11T18:08:01.201Z,97988.80
2023-03-11T18:10:28.968Z,97991.80
2023-03-11T18:12:56.892Z,98000.00
2023-03-11T18:15:24.680Z,98002.40
2023-03-11T18:17:52.368Z,98005.00
2023-03-11T18:20:20.438Z,98006.40
2023-03-11T18:22:48.390Z,98009.00
2023-03-11T18:25:16.254Z,98025.20
2023-03-11T18:27:44.548Z,98032.40
2023-03-11T18:30:13.098Z,98035.80
2023-03-11T18:32:41.580Z,98037.20
2023-03-11T18:35:10.634Z,98037.80
2023-03-11T18:37:38.532Z,98038.40
2023-03-11T18:40:07.679Z,98041.80
2023-03-11T18:42:35.645Z,98050.80
2023-03-11T18:45:04.900Z,98046.80
2023-03-11T18:47:35.598Z,98054.80
2023-03-11T18:50:05.208Z,98058.40
2023-03-11T18:52:32.959Z,98058.00
2023-03-11T18:55:00.883Z,98057.60
2023-03-11T18:57:28.677Z,98067.80
2023-03-11T18:59:56.524Z,98068.40
2023-03-11T19:02:26.236Z,98074.00
2023-03-11T19:04:54.230Z,98074.40
2023-03-11T19:07:22.639Z,98075.40
2023-03-11T19:09:50.455Z,98079.60
2023-03-11T19:12:18.420Z,98080.40
2023-03-11T19:14:46.314Z,98084.60
2023-03-11T19:17:16.384Z,98092.00
2023-03-11T19:19:44.294Z,98091.00
2023-03-11T19:22:11.982Z,98087.40
2023-03-11T19:24:39.942Z,98093.00
2023-03-11T19:27:07.722Z,98095.00
2023-03-11T19:29:35.457Z,98103.00
2023-03-11T19:32:03.880Z,98099.00
2023-03-11T19:34:31.852Z,98107.40
2023-03-11T19:36:59.695Z,98105.00
2023-03-11T19:39:27.450Z,98108.00
2023-03-11T19:41:55.510Z,98109.60
2023-03-11T19:44:23.310Z,98118.60
2023-03-11T19:46:51.340Z,98125.20
2023-03-11T19:49:19.452Z,98130.00
2023-03-11T19:51:50.464Z,98125.20
2023-03-11T19:54:19.504Z,98130.60
2023-03-11T19:56:48.025Z,98132.00
2023-03-11T19:59:16.219Z,98129.80
2023-03-11T20:01:44.143Z,98138.60
2023-03-11T20:04:12.547Z,98141.60
2023-03-11T20:06:40.525Z,98136.80
2023-03-11T20:09:08.814Z,98140.80
2023-03-11T20:11:40.460Z,98142.60
2023-03-11T20:14:10.399Z,98141.60
2023-03-11T20:16:39.400Z,98143.40
2023-03-11T20:19:07.475Z,98145.80
2023-03-11T20:21:39.259Z,98146.00
2023-03-11T20:24:08.520Z,98156.40
2023-03-11T20:26:37.194Z,98155.80
2023-03-11T20:29:05.290Z,98160.60
2023-03-11T20:31:33.829Z,98158.00
2023-03-11T20:34:02.227Z,98157.60
2023-03-11T20:36:33.393Z,98160.20
2023-03-11T20:39:02.261Z,98165.20
2023-03-11T20:41:38.403Z,98162.00
2023-03-11T20:44:08.606Z,98165.40
2023-03-11T20:46:36.593Z,98172.60
2023-03-11T20:49:04.820Z,98169.60
2023-03-11T20:51:32.780Z,98178.60
2023-03-11T20:54:00.563Z,98178.60
2023-03-11T20:56:28.824Z,98173.40
2023-03-11T20:58:59.204Z,98183.20
2023-03-11T21:01:30.430Z,98183.80
2023-03-11T21:04:02.603Z,98188.00
2023-03-11T21:06:35.770Z,98190.00
2023-03-11T21:09:10.673Z,98193.20
2023-03-11T21:11:38.665Z,98198.40
2023-03-11T21:14:06.942Z,98202.80
2023-03-11T21:16:37.029Z,98199.00
2023-03-11T21:19:08.187Z,98201.80
2023-03-11T21:21:36.746Z,98201.80
2023-03-11T21:24:05.119Z,98205.60
2023-03-11T21:26:32.955Z,98202.60
2023-03-11T21:29:00.868Z,98213.80
2023-03-11T21:31:29.755Z,98218.80
2023-03-11T21:33:59.747Z,98229.80
2023-03-11T21:36:29.482Z,98227.60
2023-03-11T21:38:57.269Z,98223.80
2023-03-11T21:41:27.756Z,98223.60
2023-03-11T21:43:57.391Z,98223.80
2023-03-11T21:46:29.771Z,98226.80
2023-03-11T21:49:00.948Z,98230.20
2023-03-11T21:51:29.491Z,98231.80
2023-03-11T21:53:57.579Z,98229.40
2023-03-11T21:56:25.759Z,98229.60
2023-03-11T21:58:53.851Z,98232.60
2023-03-11T22:01:21.965Z,98230.00
2023-03-11T22:03:49.948Z,98227.60
2023-03-11T22:06:17.773Z,98234.00
2023-03-11T22:08:45.609Z,98234.20
2023-03-11T22:11:17.688Z,98233.00
2023-03-11T22:13:48.374Z,98236.60
2023-03-11T22:16:17.228Z,98242.00
2023-03-11T22:18:45.334Z,98243.40
2023-03-11T22:21:15.661Z,98244.00
2023-03-11T22:23:44.997Z,98244.00
2023-03-11T22:26:14.103Z,98238.80
2023-03-11T22:28:41.896Z,98238.60
2023-03-11T22:31:13.717Z,98237.20
2023-03-11T22:33:41.533Z,98235.80
2023-03-11T22:36:09.778Z,98241.80
2023-03-11T22:38:39.398Z,98241.40
2023-03-11T22:41:09.658Z,98251.00
2023-03-11T22:43:38.805Z,98251.80
2023-03-11T22:46:07.578Z,98245.20
2023-03-11T22:48:36.023Z,98252.20
2023-03-11T22:51:04.816Z,98249.80
2023-03-11T22:53:32.626Z,98251.40
2023-03-11T22:56:00.329Z,98247.80
2023-03-11T22:58:28.065Z,98252.20
2023-03-11T23:00:55.769Z,98252.20
2023-03-11T23:03:23.459Z,98255.00
2023-03-11T23:05:51.183Z,98261.60
2023-03-11T23:08:18.897Z,98261.40
2023-03-11T23:10:47.741Z,98263.80
2023-03-11T23:13:16.233Z,98260.80
2023-03-11T23:15:46.213Z,98268.60
2023-03-11T23:18:15.886Z,98267.20
2023-03-11T23:20:45.170Z,98268.00
2023-03-11T23:23:13.970Z,98269.60
2023-03-11T23:25:42.836Z,98270.60
2023-03-11T23:28:10.561Z,98277.40
2023-03-11T23:30:40.666Z,98284.80
2023-03-11T23:33:08.726Z,98280.80
2023-03-11T23:35:41.992Z,98285.20
2023-03-11T23:38:09.989Z,98281.60
2023-03-11T23:40:41.555Z,98286.60
2023-03-11T23:43:09.202Z,98284.80
2023-03-11T23:45:36.904Z,98284.40
2023-03-11T23:48:04.689Z,98288.40
2023-03-11T23:50:32.422Z,98292.80
2023-03-11T23:53:00.229Z,98290.00
2023-03-11T23:55:27.992Z,98292.00
2023-03-11T23:57:55.701Z,98296.00
